createdAt,value
2019-05-26T00:00:11.992Z,0.37
2019-05-26T00:02:52.836Z,0.33
2019-05-26T00:05:33.385Z,0.67
2019-05-26T00:08:14.210Z,0.53
2019-05-26T00:10:54.998Z,0.73
2019-05-26T00:13:35.537Z,0.67
2019-05-26T00:16:16.256Z,0.30
2019-05-26T00:18:57.017Z,0.63
2019-05-26T00:21:37.889Z,0.60
2019-05-26T00:24:18.651Z,0.30
2019-05-26T00:26:59.448Z,0.70
2019-05-26T00:29:40.366Z,0.87
2019-05-26T00:32:09.460Z,0.67
2019-05-26T00:34:57.688Z,1.10
2019-05-26T00:37:49.215Z,0.50
2019-05-26T00:40:20.487Z,0.93
2019-05-26T00:43:01.425Z,0.40
2019-05-26T00:45:30.557Z,0.57
2019-05-26T00:48:18.805Z,0.77
2019-05-26T00:50:59.772Z,0.40
2019-05-26T00:53:40.227Z,0.50
2019-05-26T00:56:21.459Z,0.50
2019-05-26T00:59:02.461Z,0.43
2019-05-26T01:01:43.581Z,0.70
2019-05-26T01:04:24.085Z,1.33
2019-05-26T01:07:05.433Z,0.53
2019-05-26T01:09:45.894Z,0.40
2019-05-26T01:12:26.961Z,0.47
2019-05-26T01:15:08.239Z,0.50
2019-05-26T01:17:49.050Z,0.53
2019-05-26T01:20:30.346Z,0.27
2019-05-26T01:23:10.962Z,0.43
2019-05-26T01:25:51.759Z,0.50
2019-05-26T01:28:32.945Z,0.50
2019-05-26T01:31:13.922Z,0.60
2019-05-26T01:33:54.453Z,0.40
2019-05-26T01:36:35.411Z,0.27
2019-05-26T01:39:16.410Z,0.57
2019-05-26T01:41:57.147Z,0.47
2019-05-26T01:44:37.821Z,0.67
2019-05-26T01:47:18.677Z,0.40
2019-05-26T01:49:59.406Z,0.33
2019-05-26T01:52:40.370Z,0.30
2019-05-26T01:58:16.720Z,0.33
2019-05-26T02:00:57.494Z,0.20
2019-05-26T02:03:38.080Z,0.57
2019-05-26T02:06:18.869Z,0.20
2019-05-26T02:08:59.689Z,0.33
2019-05-26T02:11:40.589Z,0.30
2019-05-26T02:14:21.328Z,0.70
2019-05-26T02:17:02.047Z,0.50
2019-05-26T02:19:42.678Z,0.63
2019-05-26T02:22:23.751Z,0.50
2019-05-26T02:25:04.489Z,1.00
2019-05-26T02:27:45.225Z,0.40
2019-05-26T02:30:26.001Z,0.43
2019-05-26T02:33:06.745Z,0.33
2019-05-26T02:35:47.545Z,0.70
2019-05-26T02:38:28.773Z,0.57
2019-05-26T02:41:09.784Z,0.13
2019-05-26T02:43:50.508Z,0.50
2019-05-26T02:46:31.354Z,0.40
2019-05-26T02:49:12.252Z,0.77
2019-05-26T02:51:53.157Z,0.57
2019-05-26T02:54:33.952Z,0.40
2019-05-26T02:57:14.626Z,0.50
2019-05-26T02:59:55.699Z,0.57
2019-05-26T03:02:36.772Z,0.33
2019-05-26T03:05:17.218Z,0.83
2019-05-26T03:07:58.150Z,0.43
2019-05-26T03:10:27.295Z,0.30
2019-05-26T03:13:36.266Z,0.40
2019-05-26T03:16:24.538Z,0.80
2019-05-26T03:19:05.212Z,0.73
2019-05-26T03:21:45.630Z,0.30
2019-05-26T03:24:27.495Z,0.50
2019-05-26T03:27:08.502Z,0.30
2019-05-26T03:29:49.439Z,0.50
2019-05-26T03:32:30.061Z,0.37
2019-05-26T03:35:10.995Z,0.30
2019-05-26T03:37:51.868Z,0.40
2019-05-26T03:40:32.798Z,0.60
2019-05-26T03:43:13.716Z,0.47
2019-05-26T03:45:54.381Z,0.10
2019-05-26T03:48:35.649Z,0.40
2019-05-26T03:51:16.406Z,0.40
2019-05-26T03:53:57.459Z,0.37
2019-05-26T03:56:38.241Z,1.03
2019-05-26T03:59:19.144Z,0.30
2019-05-26T04:01:59.800Z,0.23
2019-05-26T04:04:40.515Z,0.40
2019-05-26T04:07:21.301Z,0.37
2019-05-26T04:10:05.460Z,0.60
2019-05-26T04:12:44.959Z,0.10
2019-05-26T04:15:25.758Z,0.50
2019-05-26T04:18:06.737Z,0.70
2019-05-26T04:20:47.888Z,0.27
2019-05-26T04:23:28.872Z,0.43
2019-05-26T04:26:09.683Z,0.30
2019-05-26T04:28:50.371Z,0.50
2019-05-26T04:31:31.221Z,0.60
2019-05-26T04:34:12.072Z,0.23
2019-05-26T04:36:52.732Z,0.17
2019-05-26T04:39:33.647Z,0.63
2019-05-26T04:42:14.912Z,0.50
2019-05-26T04:44:55.765Z,0.50
2019-05-26T04:50:15.784Z,0.43
2019-05-26T04:53:06.099Z,1.13
2019-05-26T04:55:39.330Z,0.57
2019-05-26T04:58:20.368Z,0.77
2019-05-26T05:01:01.127Z,0.83
2019-05-26T05:03:41.969Z,0.40
2019-05-26T05:06:22.658Z,0.47
2019-05-26T05:11:50.674Z,0.30
2019-05-26T05:14:31.895Z,0.50
2019-05-26T05:17:12.781Z,0.67
2019-05-26T05:19:53.567Z,1.17
2019-05-26T05:22:22.702Z,1.07
2019-05-26T05:25:15.129Z,1.20
2019-05-26T05:27:53.727Z,0.80
2019-05-26T05:30:34.462Z,0.30
2019-05-26T05:33:15.317Z,0.57
2019-05-26T05:35:44.483Z,0.77
2019-05-26T05:38:32.113Z,0.40
2019-05-26T05:41:20.272Z,0.90
2019-05-26T05:44:01.492Z,0.60
2019-05-26T05:46:42.230Z,0.60
2019-05-26T05:49:22.952Z,0.60
2019-05-26T05:52:03.860Z,0.40
2019-05-26T05:54:44.665Z,1.00
2019-05-26T05:57:25.466Z,0.70
2019-05-26T06:00:06.384Z,0.60
2019-05-26T06:02:47.561Z,0.80
2019-05-26T06:05:28.135Z,0.60
2019-05-26T06:08:09.362Z,0.47
2019-05-26T06:10:49.821Z,0.60
2019-05-26T06:13:30.288Z,0.43
2019-05-26T06:16:11.329Z,0.30
2019-05-26T06:18:52.414Z,0.77
2019-05-26T06:21:33.543Z,0.77
2019-05-26T06:24:15.036Z,0.70
2019-05-26T06:26:44.008Z,0.87
2019-05-26T06:29:32.253Z,1.20
2019-05-26T06:32:12.981Z,0.90
2019-05-26T06:34:55.210Z,1.00
2019-05-26T06:37:36.191Z,1.00
2019-05-26T06:40:16.651Z,0.97
2019-05-26T06:42:57.927Z,1.20
2019-05-26T06:45:38.828Z,0.93
2019-05-26T06:48:19.717Z,0.90
2019-05-26T06:51:00.890Z,1.07
2019-05-26T06:53:41.861Z,0.93
2019-05-26T06:56:22.506Z,1.23
2019-05-26T06:59:03.225Z,0.77
2019-05-26T07:01:44.059Z,0.80
2019-05-26T07:04:24.593Z,0.77
2019-05-26T07:07:05.854Z,0.87
2019-05-26T07:09:46.520Z,1.07
2019-05-26T07:12:27.128Z,0.80
2019-05-26T07:15:07.636Z,1.17
2019-05-26T07:17:48.099Z,0.83
2019-05-26T07:20:28.594Z,0.77
2019-05-26T07:23:09.533Z,1.13
2019-05-26T07:25:51.580Z,1.07
2019-05-26T07:28:32.394Z,1.47
2019-05-26T07:31:13.796Z,1.00
2019-05-26T07:33:54.244Z,1.17
2019-05-26T07:36:34.658Z,1.37
2019-05-26T07:42:15.977Z,1.07
2019-05-26T07:44:56.785Z,0.87
2019-05-26T07:47:37.259Z,1.20
2019-05-26T07:50:18.271Z,0.87
2019-05-26T07:52:59.016Z,1.10
2019-05-26T07:55:40.245Z,1.10
2019-05-26T07:58:21.253Z,1.17
2019-05-26T08:01:02.170Z,0.90
2019-05-26T08:03:42.950Z,1.17
2019-05-26T08:06:24.383Z,1.20
2019-05-26T08:09:05.106Z,0.87
2019-05-26T08:11:46.424Z,1.50
2019-05-26T08:14:27.157Z,1.10
2019-05-26T08:17:07.870Z,0.83
2019-05-26T08:19:48.529Z,1.23
2019-05-26T08:22:29.150Z,1.10
2019-05-26T08:25:10.080Z,0.93
2019-05-26T08:27:50.776Z,1.10
2019-05-26T08:30:31.547Z,1.03
2019-05-26T08:33:12.509Z,1.07
2019-05-26T08:35:53.448Z,1.03
2019-05-26T08:38:34.130Z,1.27
2019-05-26T08:41:15.063Z,1.40
2019-05-26T08:43:56.150Z,1.27
2019-05-26T08:46:37.219Z,1.23
2019-05-26T08:49:17.924Z,1.30
2019-05-26T08:51:58.860Z,1.20
2019-05-26T08:54:39.340Z,0.90
2019-05-26T08:57:20.525Z,1.30
2019-05-26T09:00:01.002Z,0.80
2019-05-26T09:02:41.797Z,0.97
2019-05-26T09:05:22.692Z,1.00
2019-05-26T09:08:03.408Z,1.00
2019-05-26T09:10:44.306Z,1.27
2019-05-26T09:13:25.008Z,1.13
2019-05-26T09:16:05.867Z,1.30
2019-05-26T09:18:46.785Z,0.67
2019-05-26T09:21:27.485Z,0.80
2019-05-26T09:24:08.121Z,1.03
2019-05-26T09:26:48.933Z,0.90
2019-05-26T09:29:29.970Z,0.97
2019-05-26T09:32:10.726Z,0.93
2019-05-26T09:34:51.510Z,0.70
2019-05-26T09:37:32.731Z,1.00
2019-05-26T09:40:13.596Z,0.67
2019-05-26T09:42:54.585Z,0.90
2019-05-26T09:45:34.975Z,1.00
2019-05-26T09:48:15.817Z,0.90
2019-05-26T09:50:56.814Z,0.70
2019-05-26T09:53:37.951Z,0.63
2019-05-26T09:56:18.903Z,0.70
2019-05-26T09:58:59.487Z,0.63
2019-05-26T10:01:40.023Z,0.77
2019-05-26T10:04:20.620Z,0.97
2019-05-26T10:07:01.381Z,1.27
2019-05-26T10:09:41.849Z,0.70
2019-05-26T10:12:22.535Z,0.70
2019-05-26T10:15:03.061Z,0.97
2019-05-26T10:17:43.673Z,0.83
2019-05-26T10:20:24.326Z,1.27
2019-05-26T10:23:05.298Z,0.93
2019-05-26T10:25:46.218Z,1.13
2019-05-26T10:28:26.956Z,0.80
2019-05-26T10:31:07.869Z,0.77
2019-05-26T10:33:48.451Z,1.10
2019-05-26T10:36:29.315Z,0.57
2019-05-26T10:39:10.244Z,0.67
2019-05-26T10:41:51.169Z,0.90
2019-05-26T10:44:32.011Z,1.13
2019-05-26T10:47:12.453Z,1.17
2019-05-26T10:49:53.258Z,0.93
2019-05-26T10:52:34.079Z,0.93
2019-05-26T10:55:03.238Z,0.50
2019-05-26T10:57:51.404Z,0.67
2019-05-26T11:00:33.100Z,0.73
2019-05-26T11:03:14.712Z,0.57
2019-05-26T11:05:55.709Z,1.47
2019-05-26T11:08:36.496Z,1.30
2019-05-26T11:11:17.777Z,0.77
2019-05-26T11:14:02.800Z,0.90
2019-05-26T11:16:29.019Z,1.00
2019-05-26T11:19:17.200Z,0.80
2019-05-26T11:21:58.438Z,0.90
2019-05-26T11:24:39.315Z,0.87
2019-05-26T11:27:20.055Z,1.40
2019-05-26T11:30:00.753Z,1.10
2019-05-26T11:32:41.465Z,0.90
2019-05-26T11:35:22.309Z,1.10
2019-05-26T11:38:03.046Z,1.00
2019-05-26T11:40:43.810Z,1.00
2019-05-26T11:43:24.697Z,0.90
2019-05-26T11:46:05.437Z,1.10
2019-05-26T11:48:34.484Z,1.47
2019-05-26T11:51:22.732Z,1.60
2019-05-26T11:54:03.504Z,0.97
2019-05-26T11:56:44.360Z,1.00
2019-05-26T11:59:25.440Z,0.80
2019-05-26T12:02:06.665Z,1.03
2019-05-26T12:04:47.539Z,1.10
2019-05-26T12:07:28.512Z,1.00
2019-05-26T12:10:13.568Z,1.43
2019-05-26T12:12:52.052Z,1.10
2019-05-26T12:15:32.563Z,1.10
2019-05-26T12:18:13.161Z,1.20
2019-05-26T12:20:53.772Z,1.03
2019-05-26T12:23:22.810Z,1.43
2019-05-26T12:26:10.901Z,1.47
2019-05-26T12:28:59.091Z,1.27
2019-05-26T12:31:47.369Z,1.07
2019-05-26T12:34:28.445Z,1.17
2019-05-26T12:37:09.334Z,0.87
2019-05-26T12:39:50.424Z,1.67
2019-05-26T12:42:31.175Z,1.00
2019-05-26T12:45:11.684Z,1.07
2019-05-26T12:47:52.456Z,1.30
2019-05-26T12:50:33.208Z,1.73
2019-05-26T12:53:14.095Z,2.27
2019-05-26T12:55:54.928Z,1.73
2019-05-26T12:58:35.431Z,1.40
2019-05-26T13:01:16.468Z,1.43
2019-05-26T13:03:57.339Z,1.03
2019-05-26T13:06:38.030Z,1.47
2019-05-26T13:09:18.524Z,0.87
2019-05-26T13:11:59.100Z,1.70
2019-05-26T13:14:39.891Z,1.13
2019-05-26T13:17:20.637Z,1.00
2019-05-26T13:20:01.363Z,1.27
2019-05-26T13:22:42.220Z,1.33
2019-05-26T13:25:22.848Z,1.00
2019-05-26T13:28:03.696Z,1.10
2019-05-26T13:30:44.455Z,1.10
2019-05-26T13:33:25.515Z,0.97
2019-05-26T13:36:06.326Z,0.90
2019-05-26T13:38:47.154Z,1.07
2019-05-26T13:41:27.591Z,0.97
2019-05-26T13:44:08.341Z,1.00
2019-05-26T13:46:49.045Z,0.70
2019-05-26T13:49:29.616Z,0.73
2019-05-26T13:52:10.257Z,1.00
2019-05-26T13:54:51.034Z,1.37
2019-05-26T13:57:31.700Z,1.20
2019-05-26T14:00:12.939Z,1.07
2019-05-26T14:02:53.599Z,1.10
2019-05-26T14:05:39.447Z,0.87
2019-05-26T14:08:24.627Z,0.60
2019-05-26T14:11:05.149Z,1.50
2019-05-26T14:13:45.733Z,1.20
2019-05-26T14:16:26.201Z,0.93
2019-05-26T14:19:06.899Z,1.17
2019-05-26T14:21:47.455Z,0.80
2019-05-26T14:24:25.463Z,1.00
2019-05-26T14:27:04.803Z,1.00
2019-05-26T14:29:43.533Z,1.27
2019-05-26T14:32:24.152Z,1.43
2019-05-26T14:35:04.929Z,1.40
2019-05-26T14:37:45.921Z,1.17
2019-05-26T14:40:27.178Z,1.30
2019-05-26T14:43:08.457Z,1.40
2019-05-26T14:45:53.187Z,1.20
2019-05-26T14:48:31.350Z,1.37
2019-05-26T14:51:12.150Z,1.20
2019-05-26T14:56:36.588Z,1.17
2019-05-26T14:59:16.967Z,1.37
2019-05-26T15:01:57.706Z,1.13
2019-05-26T15:04:38.059Z,0.80
2019-05-26T15:07:19.161Z,1.00
2019-05-26T15:09:48.202Z,1.17
2019-05-26T15:12:36.407Z,1.20
2019-05-26T15:15:16.912Z,1.33
2019-05-26T15:17:57.617Z,1.30
2019-05-26T15:20:38.370Z,0.90
2019-05-26T15:23:19.539Z,1.23
2019-05-26T15:26:00.151Z,1.00
2019-05-26T15:28:41.149Z,1.27
2019-05-26T15:31:21.892Z,1.13
2019-05-26T15:34:02.781Z,1.13
2019-05-26T15:36:43.935Z,1.10
2019-05-26T15:39:24.754Z,1.00
2019-05-26T15:42:08.203Z,1.30
2019-05-26T15:44:47.751Z,0.70
2019-05-26T15:47:28.882Z,1.10
2019-05-26T15:50:09.375Z,1.27
2019-05-26T15:52:50.266Z,1.10
2019-05-26T15:55:30.946Z,1.20
2019-05-26T15:58:11.743Z,1.00
2019-05-26T16:00:52.494Z,1.07
2019-05-26T16:03:33.101Z,1.10
2019-05-26T16:06:14.007Z,1.20
2019-05-26T16:08:54.666Z,1.60
2019-05-26T16:11:35.215Z,1.00
2019-05-26T16:14:16.098Z,1.30
2019-05-26T16:16:57.490Z,1.10
2019-05-26T16:19:38.016Z,1.07
2019-05-26T16:22:18.721Z,1.40
2019-05-26T16:24:59.698Z,0.93
2019-05-26T16:27:40.767Z,1.10
2019-05-26T16:30:21.414Z,1.17
2019-05-26T16:33:02.251Z,1.00
2019-05-26T16:35:42.937Z,1.00
2019-05-26T16:38:23.774Z,0.90
2019-05-26T16:41:06.716Z,0.97
2019-05-26T16:43:47.502Z,1.20
2019-05-26T16:46:28.299Z,0.87
2019-05-26T16:49:09.178Z,1.10
2019-05-26T16:51:49.781Z,1.07
2019-05-26T16:54:30.585Z,1.10
2019-05-26T16:57:11.302Z,1.20
2019-05-26T16:59:51.977Z,0.70
2019-05-26T17:02:32.725Z,1.30
2019-05-26T17:05:14.356Z,0.93
2019-05-26T17:07:55.231Z,1.30
2019-05-26T17:10:35.921Z,1.37
2019-05-26T17:13:16.600Z,1.37
2019-05-26T17:15:57.429Z,1.07
2019-05-26T17:18:38.491Z,1.40
2019-05-26T17:21:18.870Z,1.03
2019-05-26T17:23:59.972Z,1.20
2019-05-26T17:26:40.620Z,1.30
2019-05-26T17:29:21.477Z,1.40
2019-05-26T17:32:02.371Z,1.13
2019-05-26T17:34:43.351Z,0.90
2019-05-26T17:37:24.279Z,1.47
2019-05-26T17:40:06.032Z,1.07
2019-05-26T17:42:46.704Z,0.80
2019-05-26T17:45:27.299Z,1.17
2019-05-26T17:48:08.026Z,1.10
2019-05-26T17:50:48.912Z,1.00
2019-05-26T17:53:29.663Z,1.10
2019-05-26T17:56:10.418Z,1.30
2019-05-26T17:58:51.220Z,0.83
2019-05-26T18:01:31.974Z,0.60
2019-05-26T18:04:13.201Z,1.00
2019-05-26T18:06:53.748Z,0.90
2019-05-26T18:09:43.658Z,0.80
2019-05-26T18:12:16.561Z,0.80
2019-05-26T18:14:57.242Z,0.90
2019-05-26T18:17:47.094Z,1.23
2019-05-26T18:20:20.727Z,1.00
2019-05-26T18:23:01.789Z,1.00
2019-05-26T18:25:42.486Z,1.00
2019-05-26T18:28:23.085Z,0.60
2019-05-26T18:31:03.775Z,0.80
2019-05-26T18:33:44.509Z,0.77
2019-05-26T18:36:25.137Z,0.60
2019-05-26T18:39:06.066Z,1.10
2019-05-26T18:41:46.940Z,0.60
2019-05-26T18:44:27.791Z,0.77
2019-05-26T18:47:08.728Z,0.80
2019-05-26T18:49:49.567Z,0.70
2019-05-26T18:52:30.469Z,0.60
2019-05-26T18:55:11.281Z,0.60
2019-05-26T18:57:51.876Z,0.80
2019-05-26T19:00:32.851Z,0.80
2019-05-26T19:03:13.918Z,0.70
2019-05-26T19:05:54.552Z,0.43
2019-05-26T19:08:35.206Z,0.70
2019-05-26T19:11:16.052Z,1.00
2019-05-26T19:13:56.969Z,1.00
2019-05-26T19:16:38.272Z,0.90
2019-05-26T19:19:19.073Z,0.70
2019-05-26T19:21:59.996Z,1.03
2019-05-26T19:24:40.850Z,0.77
2019-05-26T19:27:21.601Z,0.53
2019-05-26T19:30:02.659Z,0.60
2019-05-26T19:32:43.401Z,0.60
2019-05-26T19:35:24.278Z,0.70
2019-05-26T19:38:05.559Z,0.50
2019-05-26T19:40:46.385Z,0.63
2019-05-26T19:43:27.213Z,1.10
2019-05-26T19:46:07.875Z,0.60
2019-05-26T19:48:48.558Z,0.60
2019-05-26T19:51:29.729Z,0.67
2019-05-26T19:54:10.482Z,0.53
2019-05-26T19:56:51.415Z,0.77
2019-05-26T19:59:32.122Z,0.80
2019-05-26T20:02:18.443Z,0.63
2019-05-26T20:04:56.226Z,0.37
2019-05-26T20:07:37.035Z,0.70
2019-05-26T20:10:17.496Z,0.70
2019-05-26T20:12:58.366Z,0.67
2019-05-26T20:15:39.680Z,0.70
2019-05-26T20:18:20.756Z,0.50
2019-05-26T20:21:02.182Z,0.60
2019-05-26T20:23:43.141Z,0.73
2019-05-26T20:26:23.935Z,0.50
2019-05-26T20:29:04.725Z,0.67
2019-05-26T20:31:45.543Z,1.37
2019-05-26T20:34:26.666Z,0.83
2019-05-26T20:37:07.457Z,0.63
2019-05-26T20:39:48.150Z,0.70
2019-05-26T20:42:29.141Z,0.77
2019-05-26T20:45:10.062Z,0.67
2019-05-26T20:47:50.719Z,0.60
2019-05-26T20:50:31.461Z,0.37
2019-05-26T20:53:12.385Z,0.60
2019-05-26T20:55:53.144Z,0.50
2019-05-26T20:58:34.033Z,0.53
2019-05-26T21:01:14.958Z,0.37
2019-05-26T21:03:56.157Z,0.57
2019-05-26T21:06:36.794Z,0.70
2019-05-26T21:09:17.649Z,0.40
2019-05-26T21:11:58.593Z,0.50
2019-05-26T21:14:39.243Z,0.50
2019-05-26T21:17:20.476Z,0.83
2019-05-26T21:20:01.105Z,0.43
2019-05-26T21:22:42.113Z,0.77
2019-05-26T21:25:22.767Z,0.27
2019-05-26T21:28:03.676Z,0.60
2019-05-26T21:30:44.668Z,0.40
2019-05-26T21:33:25.564Z,0.60
2019-05-26T21:36:06.465Z,0.67
2019-05-26T21:38:47.248Z,0.50
2019-05-26T21:41:27.950Z,0.50
2019-05-26T21:44:08.771Z,0.43
2019-05-26T21:46:49.429Z,0.33
2019-05-26T21:49:30.701Z,0.50
2019-05-26T21:52:11.334Z,0.50
2019-05-26T21:54:52.168Z,0.73
2019-05-26T21:57:32.604Z,0.50
2019-05-26T22:00:15.834Z,0.70
2019-05-26T22:02:56.649Z,0.47
2019-05-26T22:05:37.614Z,0.40
2019-05-26T22:08:18.560Z,0.57
2019-05-26T22:10:59.417Z,0.80
2019-05-26T22:13:40.192Z,0.80
2019-05-26T22:16:21.144Z,0.33
2019-05-26T22:19:02.205Z,0.33
2019-05-26T22:21:43.007Z,0.50
2019-05-26T22:24:23.803Z,0.57
2019-05-26T22:27:04.422Z,0.27
2019-05-26T22:29:45.059Z,0.60
2019-05-26T22:32:25.717Z,0.40
2019-05-26T22:35:06.613Z,0.97
2019-05-26T22:37:47.165Z,0.37
2019-05-26T22:40:27.905Z,0.40
2019-05-26T22:43:08.867Z,0.30
2019-05-26T22:45:49.674Z,0.20
2019-05-26T22:48:30.600Z,0.53
2019-05-26T22:51:11.425Z,0.50
2019-05-26T22:53:52.367Z,0.67
2019-05-26T22:56:33.580Z,0.90
2019-05-26T22:59:14.161Z,0.27
2019-05-26T23:01:54.809Z,0.70
2019-05-26T23:04:35.435Z,0.67
2019-05-26T23:07:16.275Z,0.33
2019-05-26T23:09:57.274Z,0.80
2019-05-26T23:12:38.002Z,0.40
2019-05-26T23:15:19.040Z,0.33
2019-05-26T23:17:59.951Z,0.77
2019-05-26T23:20:41.264Z,0.33
2019-05-26T23:23:10.260Z,0.60
2019-05-26T23:25:58.516Z,0.20
2019-05-26T23:28:46.703Z,0.37
2019-05-26T23:31:27.618Z,0.50
2019-05-26T23:34:08.445Z,0.50
2019-05-26T23:36:49.344Z,0.20
2019-05-26T23:39:30.222Z,0.60
2019-05-26T23:42:11.097Z,0.40
2019-05-26T23:44:51.947Z,0.43
2019-05-26T23:47:32.968Z,0.20
2019-05-26T23:50:13.341Z,0.33
2019-05-26T23:52:54.172Z,0.40
2019-05-26T23:55:35.033Z,0.30
2019-05-26T23:58:15.781Z,0.50
